createdAt,value
2023-02-16T07:39:21.107Z,972.87
2023-02-16T07:40:20.919Z,972.88
2023-02-16T07:42:25.253Z,972.88
2023-02-16T07:43:25.153Z,972.88
2023-02-16T07:45:29.578Z,972.88
2023-02-16T07:46:31.019Z,972.96
2023-02-16T07:50:06.596Z,972.93
2023-02-16T07:51:06.867Z,972.90
2023-02-16T07:54:43.184Z,972.95
2023-02-16T07:55:43.102Z,972.93
2023-02-16T07:56:43.028Z,972.97
2023-02-16T07:57:42.965Z,973.01
2023-02-16T07:58:42.889Z,972.99
2023-02-16T07:59:42.817Z,973.00
2023-02-16T08:00:42.745Z,973.03
2023-02-16T08:01:42.673Z,972.99
2023-02-16T08:02:42.700Z,972.97
2023-02-16T08:03:42.543Z,972.96
2023-02-16T08:04:42.465Z,973.01
2023-02-16T08:05:42.392Z,973.00
2023-02-16T08:06:42.324Z,972.99
2023-02-16T08:07:42.273Z,972.97
2023-02-16T08:08:42.177Z,972.98
2023-02-16T08:09:42.108Z,973.02
2023-02-16T08:10:42.125Z,973.02
2023-02-16T08:11:41.964Z,973.03
2023-02-16T08:12:41.900Z,973.02
2023-02-16T08:13:41.823Z,973.06
2023-02-16T08:14:41.747Z,973.12
2023-02-16T08:15:41.684Z,973.14
2023-02-16T08:16:41.698Z,973.12
2023-02-16T08:17:41.549Z,973.15
2023-02-16T08:18:41.483Z,973.12
2023-02-16T08:19:41.400Z,973.15
2023-02-16T08:21:02.344Z,973.11
2023-02-16T08:21:41.259Z,973.13
2023-02-16T08:22:41.203Z,973.16
2023-02-16T08:23:41.119Z,973.14
2023-02-16T08:24:41.047Z,973.12
2023-02-16T08:25:40.996Z,973.15
2023-02-16T08:26:41.225Z,973.17
2023-02-16T08:27:40.837Z,973.16
2023-02-16T08:28:40.760Z,973.16
2023-02-16T08:29:40.733Z,973.14
2023-02-16T08:30:40.622Z,973.16
2023-02-16T08:31:40.641Z,973.13
2023-02-16T08:32:40.484Z,973.12
2023-02-16T08:33:40.411Z,973.14
2023-02-16T08:34:43.160Z,973.11
2023-02-16T08:35:40.270Z,973.09
2023-02-16T08:36:40.262Z,973.09
2023-02-16T08:37:40.145Z,973.11
2023-02-16T08:38:40.062Z,973.11
2023-02-16T08:39:39.991Z,973.11
2023-02-16T08:40:39.916Z,973.14
2023-02-16T08:41:39.849Z,973.09
2023-02-16T08:42:39.785Z,973.09
2023-02-16T08:43:39.712Z,973.06
2023-02-16T08:44:39.721Z,973.15
2023-02-16T08:45:39.592Z,973.13
2023-02-16T08:46:39.510Z,973.08
2023-02-16T08:47:39.427Z,973.11
2023-02-16T08:48:39.356Z,973.08
2023-02-16T08:49:39.524Z,973.12
2023-02-16T08:50:39.218Z,973.12
2023-02-16T08:51:39.148Z,973.12
2023-02-16T08:52:39.078Z,973.14
2023-02-16T08:53:39.011Z,973.17
2023-02-16T08:54:38.941Z,973.19
2023-02-16T08:55:38.904Z,973.22
2023-02-16T08:56:38.811Z,973.21
2023-02-16T08:57:38.730Z,973.23
2023-02-16T08:58:38.659Z,973.19
2023-02-16T08:59:38.610Z,973.21
2023-02-16T09:00:38.525Z,973.20
2023-02-16T09:01:38.529Z,973.20
2023-02-16T09:02:38.409Z,973.28
2023-02-16T09:03:38.375Z,973.26
2023-02-16T09:04:38.239Z,973.25
2023-02-16T09:05:38.179Z,973.20
2023-02-16T09:06:38.098Z,973.20
2023-02-16T09:07:38.034Z,973.23
2023-02-16T09:08:37.960Z,973.25
2023-02-16T09:09:37.896Z,973.22
2023-02-16T09:10:37.829Z,973.18
2023-02-16T09:11:37.750Z,973.21
2023-02-16T09:12:37.692Z,973.21
2023-02-16T09:13:37.619Z,973.20
2023-02-16T09:14:37.549Z,973.16
2023-02-16T09:15:38.482Z,973.23
2023-02-16T09:16:37.435Z,973.21
2023-02-16T09:17:37.345Z,973.21
2023-02-16T09:18:37.267Z,973.23
2023-02-16T09:19:37.200Z,973.25
2023-02-16T09:20:37.135Z,973.21
2023-02-16T09:21:37.067Z,973.25
2023-02-16T09:22:37.001Z,973.23
2023-02-16T09:23:36.928Z,973.22
2023-02-16T09:24:36.859Z,973.22
2023-02-16T09:25:36.790Z,973.19
2023-02-16T09:26:36.720Z,973.20
2023-02-16T09:27:36.657Z,973.22
2023-02-16T09:28:36.593Z,973.23
2023-02-16T09:29:36.516Z,973.21
2023-02-16T09:30:36.597Z,973.26
2023-02-16T09:31:36.498Z,973.20
2023-02-16T09:32:36.326Z,973.22
2023-02-16T09:33:36.247Z,973.23
2023-02-16T09:34:36.175Z,973.23
2023-02-16T09:35:36.114Z,973.24
2023-02-16T09:36:36.031Z,973.23
2023-02-16T09:37:35.965Z,973.23
2023-02-16T09:38:35.898Z,973.21
2023-02-16T09:39:35.830Z,973.21
2023-02-16T09:40:35.761Z,973.22
2023-02-16T09:41:35.690Z,973.22
2023-02-16T09:42:35.622Z,973.24
2023-02-16T09:43:35.555Z,973.22
2023-02-16T09:44:35.497Z,973.24
2023-02-16T09:45:35.436Z,973.25
2023-02-16T09:46:35.444Z,973.25
2023-02-16T09:47:35.284Z,973.30
2023-02-16T09:48:35.219Z,973.32
2023-02-16T09:49:35.172Z,973.34
2023-02-16T09:50:53.917Z,973.34
2023-02-16T09:51:35.104Z,973.40
2023-02-16T09:52:34.943Z,973.30
2023-02-16T09:53:34.885Z,973.33
2023-02-16T09:54:34.841Z,973.31
2023-02-16T09:55:34.739Z,973.25
2023-02-16T09:56:34.684Z,973.27
2023-02-16T09:57:34.599Z,973.27
2023-02-16T09:58:34.532Z,973.27
2023-02-16T09:59:34.466Z,973.30
2023-02-16T10:00:34.396Z,973.24
2023-02-16T10:01:34.391Z,973.27
2023-02-16T10:02:34.268Z,973.25
2023-02-16T10:03:34.203Z,973.23
2023-02-16T10:04:34.120Z,973.24
2023-02-16T10:05:34.061Z,973.21
2023-02-16T10:06:33.990Z,973.19
2023-02-16T10:07:33.919Z,973.19
2023-02-16T10:08:33.852Z,973.24
2023-02-16T10:09:33.789Z,973.24
2023-02-16T10:10:33.717Z,973.26
2023-02-16T10:11:33.653Z,973.26
2023-02-16T10:12:33.590Z,973.25
2023-02-16T10:13:33.520Z,973.23
2023-02-16T10:14:33.466Z,973.25
2023-02-16T10:15:33.428Z,973.28
2023-02-16T10:16:33.324Z,973.26
2023-02-16T10:17:33.269Z,973.25
2023-02-16T10:18:33.178Z,973.23
2023-02-16T10:19:33.108Z,973.25
2023-02-16T10:20:33.041Z,973.22
2023-02-16T10:21:32.976Z,973.22
2023-02-16T10:22:32.915Z,973.23
2023-02-16T10:23:32.840Z,973.25
2023-02-16T10:24:32.769Z,973.24
2023-02-16T10:25:32.707Z,973.25
2023-02-16T10:26:32.642Z,973.26
2023-02-16T10:27:32.596Z,973.24
2023-02-16T10:28:32.498Z,973.24
2023-02-16T10:29:32.433Z,973.22
2023-02-16T10:30:32.452Z,973.24
2023-02-16T10:31:32.442Z,973.25
2023-02-16T10:32:33.910Z,973.22
2023-02-16T10:33:32.169Z,973.24
2023-02-16T10:34:32.096Z,973.20
2023-02-16T10:35:32.040Z,973.20
2023-02-16T10:36:31.967Z,973.25
2023-02-16T10:37:31.902Z,973.21
2023-02-16T10:38:31.845Z,973.20
2023-02-16T10:39:31.847Z,973.19
2023-02-16T10:40:31.719Z,973.21
2023-02-16T10:41:31.684Z,973.24
2023-02-16T10:42:31.565Z,973.21
2023-02-16T10:43:31.503Z,973.20
2023-02-16T10:44:31.437Z,973.20
2023-02-16T10:45:31.366Z,973.16
2023-02-16T10:46:31.378Z,973.18
2023-02-16T10:47:31.255Z,973.17
2023-02-16T10:48:31.166Z,973.16
2023-02-16T10:49:31.107Z,973.12
2023-02-16T10:50:31.035Z,973.13
2023-02-16T10:51:30.968Z,973.15
2023-02-16T10:52:30.901Z,973.09
2023-02-16T10:53:30.836Z,973.08
2023-02-16T10:54:30.768Z,973.07
2023-02-16T10:55:30.704Z,973.02
2023-02-16T10:56:30.629Z,973.07
2023-02-16T10:57:30.563Z,973.06
2023-02-16T10:58:30.503Z,973.08
2023-02-16T10:59:30.429Z,973.09
2023-02-16T11:00:30.393Z,973.03
2023-02-16T11:01:30.345Z,973.09
2023-02-16T11:02:30.261Z,973.05
2023-02-16T11:03:30.164Z,973.04
2023-02-16T11:04:30.175Z,973.02
2023-02-16T11:05:30.032Z,973.04
2023-02-16T11:06:29.970Z,972.97
2023-02-16T11:07:29.899Z,973.02
2023-02-16T11:08:30.081Z,973.02
2023-02-16T11:09:29.761Z,972.99
2023-02-16T11:10:29.705Z,972.99
2023-02-16T11:11:29.632Z,972.96
2023-02-16T11:12:29.579Z,972.98
2023-02-16T11:13:29.577Z,972.94
2023-02-16T11:14:29.431Z,972.87
2023-02-16T11:15:29.362Z,972.86
2023-02-16T11:16:29.299Z,972.82
2023-02-16T11:17:29.231Z,972.84
2023-02-16T11:18:29.171Z,972.85
2023-02-16T11:19:29.105Z,972.83
2023-02-16T11:20:29.036Z,972.85
2023-02-16T11:21:28.965Z,972.79
2023-02-16T11:22:28.905Z,972.75
2023-02-16T11:23:28.845Z,972.80
2023-02-16T11:24:28.768Z,972.75
2023-02-16T11:25:28.703Z,972.77
2023-02-16T11:26:28.667Z,972.71
2023-02-16T11:27:28.569Z,972.74
2023-02-16T11:28:28.976Z,972.74
2023-02-16T11:29:28.442Z,972.70
2023-02-16T11:30:28.439Z,972.74
2023-02-16T11:31:28.359Z,972.70
2023-02-16T11:32:28.238Z,972.71
2023-02-16T11:33:28.174Z,972.67
2023-02-16T11:34:28.107Z,972.68
2023-02-16T11:35:28.042Z,972.68
2023-02-16T11:36:27.977Z,972.66
2023-02-16T11:37:27.911Z,972.67
2023-02-16T11:38:27.842Z,972.60
2023-02-16T11:39:27.796Z,972.61
2023-02-16T11:40:27.708Z,972.60
2023-02-16T11:41:27.635Z,972.55
2023-02-16T11:42:27.578Z,972.56
2023-02-16T11:43:27.499Z,972.56
2023-02-16T11:44:27.453Z,972.54
2023-02-16T11:45:28.436Z,972.56
2023-02-16T11:46:27.325Z,972.51
2023-02-16T11:47:27.243Z,972.52
2023-02-16T11:48:27.191Z,972.54
2023-02-16T11:49:27.108Z,972.51
2023-02-16T11:50:27.048Z,972.47
2023-02-16T11:51:26.979Z,972.46
2023-02-16T11:52:26.905Z,972.45
2023-02-16T11:53:26.853Z,972.45
2023-02-16T11:54:26.780Z,972.41
2023-02-16T11:55:26.739Z,972.44
2023-02-16T11:56:26.639Z,972.39
2023-02-16T11:57:26.588Z,972.40
2023-02-16T11:58:26.515Z,972.35
2023-02-16T11:59:26.442Z,972.38
2023-02-16T12:00:26.383Z,972.37
2023-02-16T12:01:26.327Z,972.33
2023-02-16T12:02:26.250Z,972.32
2023-02-16T12:03:26.180Z,972.28
2023-02-16T12:04:26.123Z,972.27
2023-02-16T12:05:26.255Z,972.26
2023-02-16T12:06:25.994Z,972.24
2023-02-16T12:07:25.923Z,972.28
2023-02-16T12:08:25.853Z,972.26
2023-02-16T12:09:25.792Z,972.18
2023-02-16T12:10:25.730Z,972.25
2023-02-16T12:11:25.658Z,972.22
2023-02-16T12:12:25.588Z,972.17
2023-02-16T12:13:25.520Z,972.13
2023-02-16T12:14:25.456Z,972.15
2023-02-16T12:15:25.393Z,972.10
2023-02-16T12:16:25.334Z,972.11
2023-02-16T12:17:25.262Z,972.07
2023-02-16T12:18:25.194Z,972.06
2023-02-16T12:19:25.127Z,972.09
2023-02-16T12:20:25.064Z,972.11
2023-02-16T12:21:24.994Z,972.07
2023-02-16T12:22:24.932Z,972.07
2023-02-16T12:23:24.863Z,972.08
2023-02-16T12:24:24.795Z,972.08
2023-02-16T12:25:24.742Z,972.04
2023-02-16T12:26:24.667Z,972.03
2023-02-16T12:27:24.596Z,972.02
2023-02-16T12:28:24.534Z,972.01
2023-02-16T12:29:24.466Z,971.98
2023-02-16T12:30:24.428Z,971.99
2023-02-16T12:31:24.376Z,972.02
2023-02-16T12:32:24.273Z,971.99
2023-02-16T12:33:24.203Z,972.00
2023-02-16T12:34:24.141Z,971.95
2023-02-16T12:35:24.071Z,971.97
2023-02-16T12:36:24.018Z,971.96
2023-02-16T12:37:23.941Z,971.97
2023-02-16T12:38:23.877Z,971.92
2023-02-16T12:39:23.830Z,971.86
2023-02-16T12:40:23.739Z,971.86
2023-02-16T12:41:23.677Z,971.86
2023-02-16T12:42:23.614Z,971.87
2023-02-16T12:43:23.552Z,971.87
2023-02-16T12:44:23.485Z,971.88
2023-02-16T12:45:23.417Z,971.86
2023-02-16T12:46:24.074Z,971.84
2023-02-16T12:47:23.281Z,971.84
2023-02-16T12:48:23.219Z,971.85
2023-02-16T12:49:23.154Z,971.85
2023-02-16T12:50:23.100Z,971.85
2023-02-16T12:51:23.026Z,971.85
2023-02-16T12:52:22.956Z,971.86
2023-02-16T12:53:22.891Z,971.84
2023-02-16T12:54:22.826Z,971.87
2023-02-16T12:55:22.755Z,971.86
2023-02-16T12:56:22.708Z,971.86
2023-02-16T12:57:22.628Z,971.86
2023-02-16T12:58:22.566Z,971.81
2023-02-16T12:59:22.524Z,971.80
2023-02-16T13:00:22.434Z,971.76
2023-02-16T13:01:22.443Z,971.74
2023-02-16T13:02:22.308Z,971.73
2023-02-16T13:03:22.262Z,971.71
2023-02-16T13:04:22.175Z,971.70
2023-02-16T13:05:22.122Z,971.67
2023-02-16T13:06:22.051Z,971.73
2023-02-16T13:07:21.983Z,971.69
2023-02-16T13:08:21.916Z,971.67
2023-02-16T13:09:21.852Z,971.66
2023-02-16T13:10:21.786Z,971.67
2023-02-16T13:11:21.741Z,971.65
2023-02-16T13:12:21.653Z,971.66
2023-02-16T13:13:21.592Z,971.69
2023-02-16T13:14:21.521Z,971.69
2023-02-16T13:15:21.470Z,971.68
2023-02-16T13:16:29.896Z,971.66
2023-02-16T13:17:21.339Z,971.71
2023-02-16T13:18:21.264Z,971.64
2023-02-16T13:19:21.204Z,971.66
2023-02-16T13:20:21.147Z,971.67
2023-02-16T13:21:21.081Z,971.68
2023-02-16T13:22:21.006Z,971.65
2023-02-16T13:23:20.993Z,971.65
2023-02-16T13:24:20.888Z,971.66
2023-02-16T13:25:22.085Z,971.64
2023-02-16T13:26:20.809Z,971.61
2023-02-16T13:27:20.683Z,971.57
2023-02-16T13:28:20.664Z,971.64
2023-02-16T13:29:20.592Z,971.60
2023-02-16T13:30:20.597Z,971.60
2023-02-16T13:31:20.458Z,971.63
2023-02-16T13:32:21.260Z,971.61
2023-02-16T13:33:20.326Z,971.61
2023-02-16T13:34:20.226Z,971.56
2023-02-16T13:35:20.169Z,971.58
2023-02-16T13:36:27.935Z,971.61
2023-02-16T17:16:31.255Z,971.47
2023-02-16T17:17:31.114Z,971.46
2023-02-16T20:06:08.034Z,971.82
2023-02-16T20:07:07.946Z,971.82
